Weather History for KOTH - July, 2013

Change the Weather History Date:

Wednesday, July 3, 2013

  Actual Average Record
Temperature  
Mean Temperature 68 °F 58 °F  
Max Temperature 75 °F 64 °F 75 °F (2013)
Min Temperature 61 °F 52 °F 40 °F (1921)
Degree Days  
Heating Degree Days 0 7  
Month to date heating degree days 0 21  
Since 1 June heating degree days 171 288  
Since 1 July heating degree days 0 21  
Cooling Degree Days 3 0  
Month to date cooling degree days 9 0  
Year to date cooling degree days 29 0  
Since 1 June cooling degree days 25 0  
Growing Degree Days 18 (Base 50)    
Moisture  
Dew Point 64 °F    
Average Humidity 83    
Maximum Humidity 100    
Minimum Humidity 64    
Precipitation  
Precipitation 0.00 in 0.02 in 0.73 in (1939)
Month to date precipitation 0.00 0.07  
Year to date precipitation 17.49 36.19  
Sea Level Pressure  
Sea Level Pressure 30.12 in    
Wind  
Wind Speed 17 mph (NNE)    
Max Wind Speed 31 mph    
Max Gust Speed 39 mph    
Visibility 10 miles    
Events      
T = Trace of Precipitation, MM = Missing Value Source: NWS Daily Summary

Daily Weather History Graph

Daily Weather History Graph

Search for Another Location

Airport or City:

Trip Planner

Search our weather history database for the weather conditions in past years. The results will help you decide how hot, cold, wet, or windy it might be!

Date:

Astronomy

Jul. 03, 2013 Rise Set
Actual Time 5:41 AM PDT 9:00 PM PDT
Civil Twilight 5:06 AM PDT 9:36 PM PDT
Nautical Twilight 4:20 AM PDT 10:22 PM PDT
Astronomical Twilight 3:23 AM PDT 11:18 PM PDT
Moon 2:26 AM PDT (7/3) 5:13 PM PDT (7/3)
Length of Visible Light 16h 30m
Length of Day
15h 19m
Waning Crescent, 17% of the Moon is Illuminated
Jul 3
Waning Crescent
Jul 8
New
Jul 15
First Quarter
Jul 22
Full
Jul 29
Last Quarter

Hourly Weather History & Observations

Time (PDT) Temp. Dew Point Humidity Pressure Visibility Wind Dir Wind Speed Gust Speed Precip Events Conditions
12:15 AM 62.6 °F 60.8 °F 94% 30.13 in 10.0 mi NNE 19.6 mph 27.6 mph N/A   Overcast
12:35 AM 66.2 °F 64.4 °F 94% 30.12 in 10.0 mi NNE 16.1 mph 24.2 mph N/A   Overcast
12:55 AM 69.8 °F 68.0 °F 94% 30.12 in 10.0 mi NNE 12.7 mph 20.7 mph N/A   Overcast
1:15 AM 66.2 °F 64.4 °F 94% 30.12 in 10.0 mi NNE 12.7 mph 23.0 mph N/A   Overcast
1:35 AM 68.0 °F 66.2 °F 94% 30.11 in 10.0 mi NNE 13.8 mph 21.9 mph N/A   Overcast
1:55 AM 66.2 °F 64.4 °F 94% 30.11 in 10.0 mi NNE 13.8 mph 18.4 mph N/A   Overcast
2:15 AM 64.4 °F 62.6 °F 94% 30.11 in 10.0 mi NNE 10.4 mph - N/A   Overcast
2:35 AM 66.2 °F 64.4 °F 94% 30.12 in 10.0 mi NNE 6.9 mph - N/A   Overcast
2:55 AM 60.8 °F 57.2 °F 88% 30.12 in 10.0 mi NNE 6.9 mph - N/A   Overcast
3:15 AM 62.6 °F 62.6 °F 100% 30.12 in 10.0 mi NNE 12.7 mph - N/A   Mostly Cloudy
3:35 AM 66.2 °F 64.4 °F 94% 30.12 in 10.0 mi NNE 10.4 mph - N/A   Partly Cloudy
3:55 AM 66.2 °F 64.4 °F 94% 30.12 in 10.0 mi NNE 11.5 mph - N/A   Clear
4:15 AM 66.2 °F 66.2 °F 100% 30.12 in 10.0 mi NNE 6.9 mph - N/A   Clear
4:35 AM 68.0 °F 66.2 °F 94% 30.12 in 10.0 mi NNE 4.6 mph - N/A   Clear
4:55 AM 66.2 °F 66.2 °F 100% 30.12 in 8.0 mi North 4.6 mph - N/A   Clear
5:15 AM 66.2 °F 66.2 °F 100% 30.12 in 8.0 mi North 4.6 mph - N/A   Clear
5:35 AM 64.4 °F 64.4 °F 100% 30.12 in 7.0 mi NNE 6.9 mph - N/A   Clear
5:55 AM 64.4 °F 64.4 °F 100% 30.12 in 6.0 mi NNE 4.6 mph - N/A   Clear
6:15 AM 64.4 °F 64.4 °F 100% 30.13 in 6.0 mi NNE 4.6 mph - N/A   Clear
6:35 AM 66.2 °F 66.2 °F 100% 30.13 in 7.0 mi North 3.5 mph - N/A   Mostly Cloudy
6:55 AM 66.2 °F 66.2 °F 100% 30.12 in 8.0 mi NE 3.5 mph - N/A   Scattered Clouds
7:15 AM 64.4 °F 62.6 °F 94% 30.13 in 10.0 mi NNE 6.9 mph - N/A   Scattered Clouds
7:35 AM 66.2 °F 62.6 °F 88% 30.13 in 10.0 mi NNE 8.1 mph - N/A   Scattered Clouds
7:55 AM 66.2 °F 62.6 °F 88% 30.12 in 10.0 mi NE 6.9 mph - N/A   Scattered Clouds
8:15 AM 69.8 °F 64.4 °F 83% 30.13 in 10.0 mi North 6.9 mph - N/A   Clear
8:35 AM 66.2 °F 62.6 °F 88% 30.13 in 10.0 mi North 3.5 mph - N/A   Clear
8:55 AM 69.8 °F 64.4 °F 83% 30.14 in 10.0 mi NNE 5.8 mph - N/A   Clear
9:15 AM 69.8 °F 62.6 °F 78% 30.14 in 10.0 mi North 13.8 mph - N/A   Clear
9:35 AM 71.6 °F 62.6 °F 73% 30.13 in 10.0 mi NNE 13.8 mph - N/A   Clear
9:55 AM 71.6 °F 62.6 °F 73% 30.13 in 10.0 mi North 18.4 mph - N/A   Clear
10:15 AM 73.4 °F 62.6 °F 69% 30.13 in 10.0 mi North 18.4 mph - N/A   Clear
10:35 AM 68.0 °F 59.0 °F 73% 30.13 in 10.0 mi North 20.7 mph 27.6 mph N/A   Clear
10:55 AM 71.6 °F 62.6 °F 73% 30.13 in 10.0 mi NNE 24.2 mph 32.2 mph N/A   Clear
11:15 AM 71.6 °F 62.6 °F 73% 30.13 in 10.0 mi NNE 23.0 mph 32.2 mph N/A   Clear
11:35 AM 73.4 °F 64.4 °F 73% 30.13 in 10.0 mi NNE 24.2 mph 33.4 mph N/A   Clear
11:55 AM 71.6 °F 60.8 °F 69% 30.13 in 10.0 mi NNE 23.0 mph 32.2 mph N/A   Clear
12:15 PM 73.4 °F 62.6 °F 69% 30.13 in 10.0 mi NNE 23.0 mph 29.9 mph N/A   Clear
12:35 PM 75.2 °F 64.4 °F 69% 30.14 in 10.0 mi NNE 25.3 mph 32.2 mph N/A   Clear
12:55 PM 73.4 °F 60.8 °F 65% 30.13 in 10.0 mi NNE 26.5 mph 34.5 mph N/A   Clear
1:15 PM 71.6 °F 60.8 °F 69% 30.13 in 10.0 mi NNE 23.0 mph 32.2 mph N/A   Clear
1:35 PM 71.6 °F 60.8 °F 69% 30.13 in 10.0 mi North 27.6 mph 34.5 mph N/A   Clear
1:55 PM 73.4 °F 62.6 °F 69% 30.13 in 10.0 mi NNE 19.6 mph 35.7 mph N/A   Clear
2:15 PM 73.4 °F 62.6 °F 69% 30.13 in 10.0 mi North 23.0 mph 27.6 mph N/A   Clear
2:35 PM 73.4 °F 62.6 °F 69% 30.12 in 10.0 mi NNE 23.0 mph 32.2 mph N/A   Clear
2:55 PM 73.4 °F 60.8 °F 65% 30.12 in 10.0 mi NNE 25.3 mph 34.5 mph N/A   Clear
3:15 PM 73.4 °F 64.4 °F 73% 30.12 in 10.0 mi NNE 26.5 mph 32.2 mph N/A   Clear
3:35 PM 75.2 °F 64.4 °F 69% 30.11 in 10.0 mi NNE 24.2 mph 33.4 mph N/A   Clear
3:55 PM 75.2 °F 66.2 °F 73% 30.11 in 10.0 mi NNE 25.3 mph 36.8 mph N/A   Clear
4:15 PM 75.2 °F 66.2 °F 73% 30.12 in 10.0 mi NNE 26.5 mph 35.7 mph N/A   Clear
4:35 PM 75.2 °F 66.2 °F 73% 30.11 in 10.0 mi NNE 31.1 mph 42.6 mph N/A   Clear
4:55 PM 69.8 °F 60.8 °F 73% 30.10 in 10.0 mi NNE 29.9 mph 36.8 mph N/A   Clear
5:15 PM 68.0 °F 59.0 °F 73% 30.10 in 10.0 mi NNE 28.8 mph 35.7 mph N/A   Clear
5:35 PM 71.6 °F 62.6 °F 73% 30.10 in 10.0 mi NNE 24.2 mph 38.0 mph N/A   Clear
5:55 PM 64.4 °F 57.2 °F 77% 30.11 in 10.0 mi NNE 31.1 mph 38.0 mph N/A   Clear
6:15 PM 71.6 °F 64.4 °F 78% 30.11 in 10.0 mi NNE 26.5 mph 35.7 mph N/A   Clear
6:35 PM 71.6 °F 64.4 °F 78% 30.11 in 10.0 mi NNE 25.3 mph 33.4 mph N/A   Partly Cloudy
6:55 PM 69.8 °F 62.6 °F 78% 30.12 in 10.0 mi NNE 26.5 mph 39.1 mph N/A   Partly Cloudy
7:15 PM 68.0 °F 62.6 °F 83% 30.12 in 10.0 mi NNE 23.0 mph 31.1 mph N/A   Scattered Clouds
7:35 PM 69.8 °F 62.6 °F 78% 30.12 in 10.0 mi NNE 23.0 mph 32.2 mph N/A   Mostly Cloudy
7:55 PM 68.0 °F 62.6 °F 83% 30.12 in 10.0 mi NNE 20.7 mph 29.9 mph N/A   Partly Cloudy
8:15 PM 68.0 °F 64.4 °F 88% 30.12 in 10.0 mi NNE 19.6 mph 27.6 mph N/A   Partly Cloudy
8:35 PM 68.0 °F 64.4 °F 88% 30.12 in 10.0 mi NNE 21.9 mph 29.9 mph N/A   Partly Cloudy
8:55 PM 69.8 °F 64.4 °F 83% 30.13 in 10.0 mi NNE 16.1 mph 26.5 mph N/A   Partly Cloudy
9:15 PM 69.8 °F 66.2 °F 88% 30.13 in 10.0 mi NNE 15.0 mph 25.3 mph N/A   Clear
9:35 PM 69.8 °F 66.2 °F 88% 30.14 in 10.0 mi NNE 18.4 mph 25.3 mph N/A   Clear
9:55 PM 69.8 °F 66.2 °F 88% 30.14 in 10.0 mi NNE 15.0 mph 21.9 mph N/A   Clear
10:15 PM 68.0 °F 64.4 °F 88% 30.15 in 10.0 mi NNE 16.1 mph 21.9 mph N/A   Clear
10:35 PM 69.8 °F 66.2 °F 88% 30.15 in 10.0 mi NNE 17.3 mph 23.0 mph N/A   Clear
10:55 PM 69.8 °F 66.2 °F 88% 30.15 in 10.0 mi NNE 12.7 mph 21.9 mph N/A   Clear
11:15 PM 69.8 °F 66.2 °F 88% 30.15 in 10.0 mi NNE 16.1 mph 23.0 mph N/A   Clear
11:35 PM 69.8 °F 66.2 °F 88% 30.15 in 10.0 mi NNE 11.5 mph 17.3 mph N/A   Clear
11:55 PM 69.8 °F 66.2 °F 88% 30.14 in 10.0 mi NE 12.7 mph - N/A   Partly Cloudy